Time;durP1;ratioP1;P1;durP2;ratioP2;P2;SDS_P1;SDS_P2;PMS_P1;PMS_P2;Temp;Humidity;BMP_temperature;BMP_pressure;BME280_temperature;BME280_humidity;BME280_pressure;Samples;Min_cycle;Max_cycle;Signal;HPM_P1;HPM_P2
2022/04/30 00:02:06;;;;;;;6.53;5.93;;;;;;;16.64;75.48;92665.44;5034787;28;20558;-76
2022/04/30 00:04:35;;;;;;;8.57;6.73;;;;;;;16.60;74.53;92645.34;5048310;28;20555;-76
2022/04/30 00:07:02;;;;;;;8.43;6.43;;;;;;;16.47;75.11;92674.16;5048326;28;20566;-76
2022/04/30 00:09:29;;;;;;;9.97;6.70;;;;;;;16.29;75.69;92671.94;5034618;28;20594;-76
2022/04/30 00:11:59;;;;;;;10.07;7.33;;;;;;;16.52;75.79;92671.31;5042848;28;20228;-76
2022/04/30 00:14:27;;;;;;;11.33;7.23;;;;;;;16.42;76.35;92676.19;5038256;28;20219;-76
2022/04/30 00:16:54;;;;;;;7.37;6.37;;;;;;;16.22;77.11;92657.97;5035469;28;20637;-76
2022/04/30 00:19:22;;;;;;;7.00;6.40;;;;;;;16.46;76.34;92672.50;5034957;28;20568;-76
2022/04/30 00:21:50;;;;;;;8.57;6.90;;;;;;;16.47;76.32;92661.41;5037979;28;20629;-76
2022/04/30 00:24:17;;;;;;;11.00;7.13;;;;;;;16.50;75.71;92661.22;5038625;28;20559;-76
2022/04/30 00:26:45;;;;;;;9.57;7.33;;;;;;;16.54;75.44;92657.56;5038400;28;20589;-76
2022/04/30 00:29:13;;;;;;;7.10;6.33;;;;;;;16.74;74.74;92665.66;5039085;28;20539;-76
2022/04/30 00:31:41;;;;;;;9.00;6.43;;;;;;;16.60;74.98;92665.75;5038229;28;20611;-76
2022/04/30 00:34:08;;;;;;;6.93;6.33;;;;;;;16.48;75.09;92668.13;5038001;28;20593;-76
2022/04/30 00:36:36;;;;;;;7.07;6.47;;;;;;;16.39;75.62;92647.53;5038570;28;20520;-76
2022/04/30 00:39:04;;;;;;;8.40;7.53;;;;;;;16.58;75.53;92653.88;5038419;28;20581;-77
2022/04/30 00:41:33;;;;;;;11.93;6.70;;;;;;;16.25;75.70;92652.66;5037410;28;20528;-76
2022/04/30 00:44:01;;;;;;;7.30;6.70;;;;;;;16.31;76.23;92662.47;5038073;28;20209;-76
2022/04/30 00:46:29;;;;;;;8.17;7.33;;;;;;;16.31;76.46;92660.75;5038353;28;20666;-76
2022/04/30 00:48:58;;;;;;;6.83;6.17;;;;;;;16.00;77.39;92658.53;5038600;28;20201;-76
2022/04/30 00:51:28;;;;;;;6.63;6.03;;;;;;;16.31;76.68;92662.47;5038442;28;20258;-76
2022/04/30 00:53:56;;;;;;;7.17;6.17;;;;;;;16.04;77.41;92655.69;5037967;28;20605;-76
2022/04/30 00:56:27;;;;;;;11.13;7.70;;;;;;;16.22;76.75;92660.53;5038357;28;20571;-76
2022/04/30 00:58:56;;;;;;;14.30;8.10;;;;;;;16.27;76.47;92659.31;5038312;28;20597;-76
2022/04/30 01:01:24;;;;;;;12.10;6.83;;;;;;;16.24;76.53;92656.13;5038090;28;20654;-76
2022/04/30 01:03:53;;;;;;;8.33;6.67;;;;;;;16.30;76.30;92654.00;5045860;28;20581;-76
2022/04/30 01:06:33;;;;;;;12.70;7.57;;;;;;;16.51;75.24;92660.28;5058042;28;20553;-76
2022/04/30 01:09:00;;;;;;;7.47;6.77;;;;;;;16.21;75.88;92658.88;5038695;28;20190;-76
2022/04/30 01:11:27;;;;;;;10.20;7.10;;;;;;;16.36;75.82;92658.72;5037616;28;20666;-76
2022/04/30 01:13:54;;;;;;;13.03;7.73;;;;;;;16.17;75.20;92650.59;5037450;28;20201;-76
2022/04/30 01:16:22;;;;;;;7.87;7.27;;;;;;;16.47;75.37;92650.38;5038169;28;20614;-76
2022/04/30 01:18:49;;;;;;;7.77;6.10;;;;;;;16.31;75.31;92640.34;5037909;28;20233;-76
2022/04/30 01:21:22;;;;;;;15.60;6.57;;;;;;;16.76;74.47;92651.06;5037584;28;20671;-76
2022/04/30 01:23:51;;;;;;;10.80;6.27;;;;;;;16.83;74.73;92649.75;5037149;28;20593;-76
2022/04/30 01:26:20;;;;;;;7.50;6.43;;;;;;;16.75;74.55;92655.34;5037409;28;20629;-76
2022/04/30 01:28:48;;;;;;;9.07;6.83;;;;;;;16.54;74.97;92636.31;5037581;28;20601;-76
2022/04/30 01:39:30;;;;;;;8.00;6.90;;;;;;;16.41;75.18;92638.84;5037510;28;20596;-76
2022/04/30 01:42:04;;;;;;;7.90;7.23;;;;;;;16.20;75.30;92634.31;5036983;28;20610;-76
2022/04/30 01:44:31;;;;;;;6.43;5.93;;;;;;;16.22;75.47;92645.25;5036879;28;20201;-76
2022/04/30 01:46:58;;;;;;;9.13;7.07;;;;;;;16.10;75.92;92641.72;5037272;28;20650;-76
2022/04/30 01:49:25;;;;;;;8.67;7.43;;;;;;;16.14;75.76;92638.06;5037101;28;20761;-76
2022/04/30 01:51:52;;;;;;;9.60;6.63;;;;;;;16.07;75.64;92622.34;5037008;28;20647;-76
2022/04/30 01:54:20;;;;;;;10.47;7.07;;;;;;;16.11;75.56;92639.06;5036581;28;20660;-76
2022/04/30 01:56:48;;;;;;;16.10;8.03;;;;;;;16.15;75.93;92642.25;5036456;28;20640;-76
2022/04/30 01:59:15;;;;;;;17.27;8.80;;;;;;;15.74;76.36;92607.44;5037439;28;20302;-76
2022/04/30 02:01:44;;;;;;;9.43;7.03;;;;;;;16.09;76.06;92635.81;5036507;28;20576;-76
2022/04/30 02:04:29;;;;;;;13.90;7.50;;;;;;;16.57;73.58;92643.75;5046782;28;20553;-76
2022/04/30 02:06:59;;;;;;;15.60;7.37;;;;;;;16.27;75.39;92633.81;5039695;28;20546;-76
2022/04/30 02:09:28;;;;;;;8.87;7.60;;;;;;;16.27;75.47;92640.66;5037933;28;20221;-76
2022/04/30 02:11:59;;;;;;;7.53;6.53;;;;;;;16.35;74.83;92641.78;5036175;28;20696;-76
2022/04/30 02:14:30;;;;;;;11.27;6.60;;;;;;;16.29;75.21;92638.81;5036280;28;20443;-77
2022/04/30 02:16:59;;;;;;;8.77;6.80;;;;;;;16.00;76.19;92631.28;5035889;28;20593;-76
2022/04/30 02:19:28;;;;;;;7.57;6.80;;;;;;;16.26;75.70;92626.28;5036257;28;20566;-76
2022/04/30 02:21:58;;;;;;;7.90;7.13;;;;;;;16.22;76.08;92635.03;5036379;28;20581;-76
2022/04/30 02:24:27;;;;;;;7.90;7.03;;;;;;;16.27;76.09;92641.47;5035817;28;20669;-76
2022/04/30 02:26:54;;;;;;;9.60;7.07;;;;;;;16.14;76.13;92632.97;5036403;28;20212;-76
2022/04/30 02:29:24;;;;;;;10.10;7.50;;;;;;;16.37;75.59;92623.84;5036341;28;20310;-76
2022/04/30 02:31:51;;;;;;;10.53;7.70;;;;;;;16.15;76.16;92634.59;5035838;28;20599;-76
2022/04/30 02:34:18;;;;;;;14.83;7.73;;;;;;;16.10;76.23;92629.81;5035708;28;20714;-76
2022/04/30 02:36:46;;;;;;;11.00;8.10;;;;;;;15.93;76.29;92612.22;5036507;28;20661;-76
2022/04/30 02:39:13;;;;;;;9.10;7.60;;;;;;;16.07;76.14;92634.25;5036746;28;20586;-76
2022/04/30 02:41:40;;;;;;;11.17;7.87;;;;;;;16.08;76.11;92634.19;5035619;28;20651;-76
2022/04/30 02:44:07;;;;;;;12.33;7.90;;;;;;;15.98;75.69;92629.75;5035671;28;20506;-76
2022/04/30 02:46:36;;;;;;;11.07;7.87;;;;;;;16.32;75.64;92641.19;5035795;28;20543;-76
2022/04/30 02:49:04;;;;;;;12.73;8.13;;;;;;;16.20;75.69;92635.13;5035871;28;20550;-76
2022/04/30 02:51:31;;;;;;;21.33;10.27;;;;;;;16.10;76.17;92636.63;5035761;28;20486;-76
2022/04/30 02:53:58;;;;;;;14.27;8.93;;;;;;;16.09;76.64;92635.00;5043524;28;20676;-76
2022/04/30 02:56:26;;;;;;;19.83;9.07;;;;;;;16.17;76.24;92633.56;5038950;28;20694;-76
2022/04/30 03:01:39;;;;;;;10.23;7.97;;;;;;;16.53;75.44;92634.69;5035792;28;20609;-76
2022/04/30 03:04:06;;;;;;;11.10;8.57;;;;;;;16.43;75.34;92639.56;5046278;28;20605;-76
2022/04/30 03:06:35;;;;;;;14.13;7.97;;;;;;;16.52;75.33;92627.94;5039894;28;20488;-76
2022/04/30 03:09:02;;;;;;;11.43;8.03;;;;;;;16.54;74.78;92632.03;5035706;28;20550;-76
2022/04/30 03:11:29;;;;;;;11.43;7.60;;;;;;;16.40;75.40;92621.09;5036278;28;20590;-76
2022/04/30 03:13:57;;;;;;;11.60;7.70;;;;;;;16.48;74.95;92622.25;5035838;28;20650;-76
2022/04/30 03:21:55;;;;;;;7.90;7.10;;;;;;;16.35;75.56;92621.38;5035515;28;20582;-76
2022/04/30 03:24:22;;;;;;;11.27;7.33;;;;;;;16.35;75.64;92626.50;5035639;28;20590;-76
2022/04/30 03:26:50;;;;;;;10.80;7.67;;;;;;;16.55;75.89;92623.47;5035368;28;20211;-76
2022/04/30 03:29:18;;;;;;;10.47;7.40;;;;;;;16.45;75.52;92629.28;5036187;28;20531;-76
2022/04/30 03:31:45;;;;;;;10.60;7.13;;;;;;;16.39;75.70;92632.22;5045451;28;20459;-76
2022/04/30 03:34:14;;;;;;;10.80;7.17;;;;;;;16.55;75.80;92632.88;5035105;28;20666;-76
2022/04/30 03:36:42;;;;;;;9.20;8.03;;;;;;;16.43;76.05;92628.56;5035886;28;20616;-76
2022/04/30 03:39:10;;;;;;;8.43;7.63;;;;;;;16.17;76.41;92628.47;5036098;28;20551;-76
2022/04/30 03:41:37;;;;;;;7.70;7.03;;;;;;;16.18;76.26;92629.31;5035099;28;20574;-76
2022/04/30 03:44:05;;;;;;;9.23;7.20;;;;;;;16.29;75.83;92621.78;5034968;28;20593;-76
2022/04/30 03:46:32;;;;;;;15.77;8.73;;;;;;;16.17;75.68;92617.47;5035591;28;20446;-76
2022/04/30 03:49:00;;;;;;;14.33;9.20;;;;;;;16.10;75.98;92622.16;5035152;28;20580;-76
2022/04/30 03:51:29;;;;;;;11.27;8.37;;;;;;;16.46;75.39;92625.78;5034966;28;20438;-76
2022/04/30 03:53:56;;;;;;;12.80;8.63;;;;;;;16.13;75.45;92629.59;5034911;28;20586;-76
2022/04/30 03:56:24;;;;;;;12.20;8.93;;;;;;;16.13;75.46;92638.97;5037426;28;20468;-76
2022/04/30 03:58:51;;;;;;;16.43;10.27;;;;;;;16.05;75.55;92636.94;5039079;28;20221;-76
2022/04/30 04:01:19;;;;;;;22.80;10.90;;;;;;;16.03;75.95;92641.28;5039267;28;20278;-76
2022/04/30 04:03:48;;;;;;;19.10;9.90;;;;;;;16.16;75.64;92649.81;5045327;28;20491;-76
2022/04/30 04:06:16;;;;;;;17.00;10.90;;;;;;;16.16;75.42;92647.25;5046128;28;20557;-76
2022/04/30 04:08:49;;;;;;;16.03;9.80;;;;;;;16.08;75.00;92616.34;5039017;28;20225;-76
2022/04/30 04:11:17;;;;;;;13.17;8.60;;;;;;;15.85;76.07;92651.81;5039027;28;20224;-76
2022/04/30 04:19:13;;;;;;;11.53;8.13;;;;;;;15.68;77.03;92651.13;5038442;28;20524;-76
2022/04/30 04:21:41;;;;;;;11.33;7.97;;;;;;;15.66;77.15;92649.59;5038619;28;20482;-76
2022/04/30 04:26:54;;;;;;;7.97;7.17;;;;;;;15.68;76.61;92638.38;5042132;28;20477;-76
2022/04/30 04:29:21;;;;;;;8.73;7.13;;;;;;;15.71;76.63;92657.78;5042372;28;20266;-75
2022/04/30 04:31:49;;;;;;;8.87;7.17;;;;;;;15.66;76.72;92654.69;5040626;28;20555;-75
2022/04/30 04:34:16;;;;;;;7.00;6.40;;;;;;;15.48;77.02;92637.97;5042732;28;20526;-75
2022/04/30 04:36:43;;;;;;;6.80;6.20;;;;;;;15.73;76.80;92653.38;5040448;28;20552;-75
2022/04/30 04:39:13;;;;;;;6.93;6.10;;;;;;;16.10;75.95;92659.56;5040227;28;20221;-75
2022/04/30 04:41:41;;;;;;;7.37;6.63;;;;;;;16.12;75.79;92667.91;5040352;28;20266;-76
2022/04/30 04:44:09;;;;;;;7.00;6.40;;;;;;;16.24;75.04;92667.16;5039848;28;20649;-74
2022/04/30 04:46:37;;;;;;;10.53;6.87;;;;;;;16.39;74.22;92670.47;5042477;28;20225;-75
2022/04/30 04:49:05;;;;;;;7.97;7.17;;;;;;;16.50;74.10;92673.16;5038374;28;20637;-76
2022/04/30 04:51:33;;;;;;;9.10;7.07;;;;;;;16.50;73.84;92668.06;5039662;28;20224;-75
2022/04/30 04:54:02;;;;;;;9.27;7.83;;;;;;;16.68;73.19;92664.31;5037394;28;20491;-76
2022/04/30 04:56:31;;;;;;;8.10;6.30;;;;;;;16.71;72.53;92660.75;5037739;28;20551;-76
2022/04/30 04:58:58;;;;;;;8.83;6.73;;;;;;;16.64;73.06;92662.91;5037402;28;20609;-74
2022/04/30 05:01:26;;;;;;;7.87;7.23;;;;;;;16.60;72.40;92635.13;5039758;28;20493;-75
2022/04/30 05:03:53;;;;;;;8.17;7.37;;;;;;;16.81;72.49;92665.16;5039941;28;20213;-74
2022/04/30 05:06:20;;;;;;;7.60;6.90;;;;;;;16.79;72.02;92671.28;5043889;28;20607;-75
2022/04/30 05:08:48;;;;;;;10.18;7.72;;;;;;;16.82;71.44;92682.13;5037894;28;20521;-73
2022/04/30 05:11:15;;;;;;;10.35;7.63;;;;;;;16.83;71.49;92670.19;5039372;28;20198;-74
2022/04/30 05:13:44;;;;;;;10.60;6.90;;;;;;;16.91;71.60;92670.47;5039825;28;20487;-76
2022/04/30 05:16:11;;;;;;;9.27;7.53;;;;;;;16.83;71.78;92675.28;5039582;28;20524;-75
2022/04/30 05:18:39;;;;;;;9.75;7.95;;;;;;;16.88;71.56;92681.72;5041391;28;20473;-75
2022/04/30 05:21:06;;;;;;;9.17;8.00;;;;;;;16.88;71.67;92686.00;5037013;28;20485;-76
2022/04/30 05:23:34;;;;;;;10.13;7.90;;;;;;;16.99;71.91;92688.66;5038807;28;20205;-75
2022/04/30 05:26:01;;;;;;;9.37;8.57;;;;;;;16.99;71.40;92691.22;5042024;28;20536;-75
2022/04/30 05:28:28;;;;;;;7.73;7.03;;;;;;;17.03;70.17;92694.38;5040154;28;20482;-75
2022/04/30 05:30:57;;;;;;;10.63;7.17;;;;;;;17.26;70.48;92693.66;5039599;28;20573;-75
2022/04/30 05:33:24;;;;;;;8.73;7.70;;;;;;;16.96;70.73;92691.41;5038048;28;20464;-74
2022/04/30 05:35:51;;;;;;;10.43;7.70;;;;;;;17.06;70.99;92694.19;5041312;28;20502;-74
2022/04/30 05:38:20;;;;;;;8.37;6.50;;;;;;;17.12;70.28;92692.03;5038448;28;20249;-74
2022/04/30 05:40:47;;;;;;;10.97;7.43;;;;;;;17.10;70.40;92693.88;5048161;28;20593;-75
2022/04/30 05:43:14;;;;;;;13.23;8.30;;;;;;;17.04;70.30;92690.91;5046341;28;20255;-77
2022/04/30 05:45:42;;;;;;;11.33;8.53;;;;;;;17.12;69.92;92699.72;5039076;28;20613;-75
2022/04/30 05:48:11;;;;;;;8.27;7.55;;;;;;;17.46;69.32;92693.16;5038956;28;20577;-75
2022/04/30 05:50:38;;;;;;;15.65;9.30;;;;;;;17.41;69.59;92708.75;5038820;28;20562;-75
2022/04/30 05:53:06;;;;;;;10.43;8.63;;;;;;;17.54;68.87;92713.06;5038959;28;20567;-75
2022/04/30 05:55:33;;;;;;;9.53;8.50;;;;;;;17.65;68.71;92713.16;5040804;28;20588;-75
2022/04/30 05:58:00;;;;;;;107.30;36.10;;;;;;;17.69;69.22;92710.28;5038763;28;20243;-75
2022/04/30 06:00:27;;;;;;;18.73;10.40;;;;;;;17.68;67.66;92716.34;5036817;28;20586;-76
2022/04/30 06:02:55;;;;;;;22.80;13.87;;;;;;;17.78;68.02;92713.97;5039185;28;20520;-76
2022/04/30 06:05:24;;;;;;;12.68;9.52;;;;;;;17.96;66.79;92714.44;5041261;28;20558;-74
2022/04/30 06:07:53;;;;;;;9.07;7.70;;;;;;;17.85;67.48;92710.09;5037732;28;20566;-75
2022/04/30 06:10:21;;;;;;;13.52;8.18;;;;;;;17.44;67.60;92666.06;5039757;28;20662;-77
2022/04/30 06:12:48;;;;;;;14.20;10.05;;;;;;;17.64;67.29;92691.09;5038330;28;20628;-75
2022/04/30 06:15:18;;;;;;;10.68;9.13;;;;;;;17.87;67.44;92705.66;5038813;28;20600;-75
2022/04/30 06:17:45;;;;;;;13.55;9.10;;;;;;;17.72;67.67;92714.41;5040111;28;20209;-76
2022/04/30 06:20:13;;;;;;;11.20;8.85;;;;;;;17.94;67.02;92713.72;5038934;28;20464;-75
2022/04/30 06:22:42;;;;;;;11.57;7.97;;;;;;;17.83;66.06;92717.03;5038557;28;20609;-74
2022/04/30 06:25:10;;;;;;;12.10;8.40;;;;;;;17.61;66.93;92712.56;5037900;28;20511;-74
2022/04/30 06:27:38;;;;;;;11.02;8.80;;;;;;;17.40;67.15;92686.72;5039531;28;20205;-75
2022/04/30 06:30:07;;;;;;;15.25;9.20;;;;;;;17.82;66.27;92715.41;5038440;28;20544;-73
2022/04/30 06:32:35;;;;;;;16.13;10.15;;;;;;;17.90;64.84;92723.38;5038201;28;20577;-73
2022/04/30 06:35:02;;;;;;;39.83;19.13;;;;;;;17.99;64.70;92722.72;5037976;28;20212;-76
2022/04/30 06:37:30;;;;;;;11.63;9.70;;;;;;;17.90;64.56;92704.66;5037245;28;20585;-74
2022/04/30 06:39:59;;;;;;;15.82;10.75;;;;;;;18.29;64.21;92729.19;5038514;28;20634;-74
2022/04/30 06:42:26;;;;;;;13.60;9.95;;;;;;;17.96;64.69;92710.16;5040371;28;20476;-76
2022/04/30 06:44:54;;;;;;;11.82;8.95;;;;;;;18.05;63.58;92724.84;5037762;28;20578;-74
2022/04/30 06:47:21;;;;;;;9.38;8.60;;;;;;;17.96;64.47;92720.38;5038083;28;20592;-74
2022/04/30 06:49:51;;;;;;;11.43;8.73;;;;;;;18.28;63.99;92723.25;5037514;28;20615;-75
2022/04/30 06:52:19;;;;;;;15.02;9.35;;;;;;;18.02;64.53;92717.41;5039781;28;20559;-74
2022/04/30 06:57:32;;;;;;;19.95;13.40;;;;;;;18.27;63.98;92696.03;5037834;28;20357;-74
2022/04/30 07:00:39;;;;;;;9.82;7.97;;;;;;;18.26;63.90;92719.16;5038442;28;20633;-76
2022/04/30 07:02:51;;;;;;;14.30;7.97;;;;;;;18.34;62.17;92725.38;5035905;28;20506;-74
2022/04/30 07:05:23;;;;;;;14.63;11.00;;;;;;;18.31;63.31;92728.13;5037753;28;20879;-74
2022/04/30 07:07:50;;;;;;;13.65;10.30;;;;;;;18.19;61.65;92724.72;5036026;28;20558;-74
2022/04/30 07:10:18;;;;;;;7.55;6.78;;;;;;;18.31;59.25;92729.91;5036473;28;20562;-74
2022/04/30 07:12:46;;;;;;;9.85;8.52;;;;;;;18.75;59.39;92734.44;5035251;28;20580;-73
2022/04/30 07:15:14;;;;;;;9.73;8.63;;;;;;;18.67;59.25;92739.28;5042861;28;20674;-74
2022/04/30 07:17:41;;;;;;;13.68;9.20;;;;;;;18.47;58.65;92744.06;5037986;28;20504;-73
2022/04/30 07:20:10;;;;;;;12.80;8.95;;;;;;;18.31;58.63;92691.53;5041263;28;20468;-73
2022/04/30 07:22:39;;;;;;;8.57;7.60;;;;;;;18.42;58.95;92729.97;5040048;28;20580;-76
2022/04/30 07:25:07;;;;;;;11.68;7.03;;;;;;;18.46;58.01;92742.41;5039655;28;20514;-75
2022/04/30 07:27:34;;;;;;;6.40;5.80;;;;;;;17.83;58.99;92722.16;5040103;28;20579;-74
2022/04/30 07:30:03;;;;;;;9.90;7.53;;;;;;;18.20;59.66;92705.88;5037856;28;20605;-73
2022/04/30 07:32:30;;;;;;;10.77;7.72;;;;;;;18.17;60.26;92710.41;5038599;28;20462;-73
2022/04/30 07:34:58;;;;;;;6.65;6.13;;;;;;;17.99;58.88;92725.28;5035840;28;20648;-73
2022/04/30 07:37:25;;;;;;;10.82;7.53;;;;;;;18.17;58.08;92724.00;5038691;28;20657;-74
2022/04/30 07:39:52;;;;;;;7.38;6.88;;;;;;;18.05;59.18;92712.06;5043072;28;20690;-73
2022/04/30 07:42:19;;;;;;;9.57;7.95;;;;;;;18.26;59.68;92694.41;5043704;28;20583;-75
2022/04/30 07:44:46;;;;;;;8.82;6.47;;;;;;;18.64;58.10;92722.41;5041481;28;20274;-74
2022/04/30 07:47:15;;;;;;;5.80;5.40;;;;;;;18.93;56.05;92738.22;5043272;27;20569;-75
2022/04/30 07:49:42;;;;;;;6.15;5.28;;;;;;;18.98;56.65;92726.69;5041359;28;20570;-74
2022/04/30 07:52:10;;;;;;;9.35;6.63;;;;;;;19.25;55.95;92725.63;5043779;28;20641;-75
2022/04/30 07:54:40;;;;;;;7.00;6.28;;;;;;;19.19;55.44;92734.56;5044178;28;20513;-74
2022/04/30 07:57:07;;;;;;;6.65;5.97;;;;;;;19.15;55.38;92733.19;5041646;28;20562;-73
2022/04/30 07:59:34;;;;;;;6.32;5.75;;;;;;;19.35;55.09;92729.13;5041053;28;20609;-74
2022/04/30 08:02:04;;;;;;;6.68;5.93;;;;;;;19.35;55.52;92718.88;5039079;28;20594;-73
2022/04/30 08:04:33;;;;;;;6.35;5.85;;;;;;;19.70;55.47;92717.09;5043741;28;20559;-74
2022/04/30 08:07:00;;;;;;;6.60;5.93;;;;;;;19.10;55.88;92724.19;5039890;28;20283;-73
2022/04/30 08:09:28;;;;;;;6.85;6.28;;;;;;;18.85;55.47;92702.94;5038745;28;20598;-75
2022/04/30 08:11:55;;;;;;;8.07;7.03;;;;;;;18.66;56.50;92701.81;5041160;28;20604;-75
2022/04/30 08:14:22;;;;;;;8.48;7.68;;;;;;;19.17;56.57;92695.44;5038151;28;20573;-74
2022/04/30 08:16:49;;;;;;;7.25;6.68;;;;;;;19.67;55.38;92711.34;5042016;28;20205;-74
2022/04/30 08:19:17;;;;;;;7.03;6.50;;;;;;;19.91;54.33;92721.50;5043458;28;20493;-75
2022/04/30 08:21:46;;;;;;;8.15;7.30;;;;;;;20.26;54.07;92719.59;5040571;28;20497;-73
2022/04/30 08:24:14;;;;;;;8.95;8.13;;;;;;;20.35;52.83;92723.19;5037986;28;20604;-75
2022/04/30 08:26:41;;;;;;;7.55;6.95;;;;;;;20.59;53.39;92723.84;5040282;28;20193;-74
2022/04/30 08:29:08;;;;;;;9.27;8.23;;;;;;;20.43;51.51;92716.53;5044531;28;20221;-72
2022/04/30 08:31:35;;;;;;;7.93;6.13;;;;;;;20.36;51.72;92722.28;5042346;28;20539;-73
2022/04/30 08:34:03;;;;;;;14.07;7.10;;;;;;;20.49;51.38;92726.34;5040361;28;20627;-73
2022/04/30 08:36:30;;;;;;;6.80;6.28;;;;;;;20.37;51.54;92721.34;5040106;28;20493;-72
2022/04/30 08:38:59;;;;;;;7.63;6.95;;;;;;;20.33;51.05;92713.06;5037615;28;20563;-74
2022/04/30 08:41:26;;;;;;;8.30;5.85;;;;;;;20.12;50.59;92730.91;5041661;28;20661;-72
2022/04/30 08:43:53;;;;;;;6.53;6.07;;;;;;;20.08;51.36;92711.56;5039663;28;20658;-73
2022/04/30 08:46:21;;;;;;;9.82;8.20;;;;;;;20.15;52.17;92715.28;5048898;27;20560;-73
2022/04/30 08:48:49;;;;;;;8.02;6.32;;;;;;;19.94;51.69;92723.84;5040577;28;20548;-73
2022/04/30 08:51:16;;;;;;;6.05;5.65;;;;;;;19.83;52.08;92716.94;5037839;28;20581;-71
2022/04/30 08:53:44;;;;;;;9.20;7.55;;;;;;;19.57;53.23;92710.41;5044436;28;20570;-73
2022/04/30 08:56:12;;;;;;;6.80;6.40;;;;;;;19.71;53.13;92695.66;5040861;28;20548;-73
2022/04/30 08:58:40;;;;;;;6.80;6.32;;;;;;;19.53;54.24;92689.34;5040423;28;20599;-73
2022/04/30 09:01:09;;;;;;;6.38;5.78;;;;;;;19.45;53.10;92689.91;5040063;28;20496;-73
2022/04/30 09:03:38;;;;;;;6.32;5.82;;;;;;;19.33;53.13;92701.06;5046410;28;20450;-74
2022/04/30 09:06:06;;;;;;;5.72;5.32;;;;;;;19.35;53.23;92703.50;5036119;28;20220;-73
2022/04/30 09:08:35;;;;;;;6.85;6.35;;;;;;;18.93;54.26;92692.94;5035208;28;20565;-74
2022/04/30 09:11:08;;;;;;;7.50;6.90;;;;;;;19.46;54.55;92683.03;5036611;28;20213;-73
2022/04/30 09:13:44;;;;;;;9.68;8.68;;;;;;;19.68;53.74;92698.44;5038074;28;20656;-74
2022/04/30 09:16:20;;;;;;;7.40;6.82;;;;;;;20.08;54.13;92688.47;5041924;28;20568;-73
2022/04/30 09:18:48;;;;;;;5.50;5.10;;;;;;;19.74;53.30;92692.00;5039573;28;20600;-74
2022/04/30 09:21:16;;;;;;;6.60;6.00;;;;;;;19.89;52.92;92677.22;5038407;28;20611;-73
2022/04/30 09:23:44;;;;;;;6.63;6.03;;;;;;;20.07;52.34;92683.47;5045570;28;20565;-72
2022/04/30 09:26:12;;;;;;;7.43;6.82;;;;;;;20.22;51.70;92690.78;5042504;28;20573;-73
2022/04/30 09:28:46;;;;;;;7.65;6.93;;;;;;;20.25;51.57;92692.28;5039360;28;20546;-73
2022/04/30 09:31:16;;;;;;;5.28;4.88;;;;;;;20.39;52.12;92697.19;5041402;28;20584;-73
2022/04/30 09:33:56;;;;;;;6.47;6.05;;;;;;;20.67;51.32;92704.31;5039443;28;20547;-72
2022/04/30 09:39:13;;;;;;;7.03;6.53;;;;;;;20.57;50.95;92680.31;5039631;28;20492;-73
2022/04/30 09:41:41;;;;;;;7.03;6.43;;;;;;;20.45;50.88;92693.34;5041417;28;20550;-73
2022/04/30 09:44:12;;;;;;;6.13;5.75;;;;;;;20.67;49.97;92700.97;5040389;28;21561;-74
2022/04/30 09:46:41;;;;;;;6.45;5.97;;;;;;;20.57;49.63;92700.84;5040295;28;20550;-75
2022/04/30 09:54:41;;;;;;;5.93;5.63;;;;;;;20.82;49.91;92681.75;5036339;28;20524;-74
2022/04/30 09:57:09;;;;;;;5.28;4.97;;;;;;;20.80;48.82;92699.00;5042671;28;20198;-74
2022/04/30 09:59:39;;;;;;;5.60;5.28;;;;;;;20.75;47.68;92706.28;5043345;28;20481;-73
2022/04/30 10:02:08;;;;;;;5.43;5.13;;;;;;;20.65;49.49;92692.56;5042875;28;20505;-73
2022/04/30 10:04:36;;;;;;;6.50;5.93;;;;;;;20.77;47.83;92698.47;5041691;28;20596;-72
2022/04/30 10:07:05;;;;;;;4.45;4.25;;;;;;;20.17;45.94;92708.28;5038524;27;20596;-73
2022/04/30 10:09:37;;;;;;;5.13;4.82;;;;;;;20.08;47.21;92696.19;5038172;28;20222;-73
2022/04/30 10:12:11;;;;;;;7.72;5.45;;;;;;;20.20;48.63;92681.56;5038511;28;20589;-72
2022/04/30 10:15:10;;;;;;;5.28;4.88;;;;;;;19.73;45.91;92704.00;5038541;28;20495;-72
2022/04/30 10:17:42;;;;;;;5.75;4.75;;;;;;;19.61;47.73;92676.75;5040704;28;20594;-73
2022/04/30 10:20:16;;;;;;;5.68;5.28;;;;;;;20.90;45.79;92696.53;5038540;28;20610;-73
2022/04/30 10:22:53;;;;;;;4.07;3.88;;;;;;;22.33;41.42;92737.63;5038117;28;20216;-73
2022/04/30 10:25:32;;;;;;;4.97;4.68;;;;;;;24.29;40.39;92725.13;5038041;28;20610;-72
2022/04/30 10:27:59;;;;;;;5.15;4.85;;;;;;;24.87;38.46;92745.44;5040398;28;20547;-74
2022/04/30 10:30:28;;;;;;;6.13;5.72;;;;;;;24.47;38.67;92732.91;5040945;28;20586;-74
2022/04/30 10:32:59;;;;;;;6.20;5.70;;;;;;;23.36;41.80;92704.47;5038379;28;20479;-73
2022/04/30 10:35:30;;;;;;;6.50;6.10;;;;;;;23.30;43.50;92697.28;5043703;28;20571;-73
2022/04/30 10:38:10;;;;;;;6.28;5.78;;;;;;;22.88;43.07;92695.97;5039992;28;20561;-74
2022/04/30 10:40:42;;;;;;;6.75;6.13;;;;;;;22.59;44.21;92680.50;5036479;28;20709;-73
2022/04/30 10:43:19;;;;;;;6.32;5.93;;;;;;;22.73;43.28;92691.22;5036458;28;20669;-73
2022/04/30 10:45:48;;;;;;;6.22;5.78;;;;;;;22.93;43.11;92692.03;5036694;28;20205;-75
2022/04/30 10:48:17;;;;;;;6.75;5.85;;;;;;;22.87;43.50;92678.91;5039750;28;20246;-75
2022/04/30 10:50:45;;;;;;;6.25;5.80;;;;;;;22.83;42.67;92704.09;5038362;28;20555;-74
2022/04/30 10:53:15;;;;;;;6.32;5.93;;;;;;;22.61;42.24;92699.19;5041733;28;20216;-74
2022/04/30 10:55:43;;;;;;;7.13;6.47;;;;;;;21.93;43.03;92695.63;5037440;28;20202;-73
2022/04/30 10:58:10;;;;;;;6.50;6.10;;;;;;;21.26;43.40;92688.41;5037749;28;20573;-73
2022/04/30 11:00:37;;;;;;;6.72;6.13;;;;;;;20.36;45.45;92674.34;5044224;28;20680;-73
2022/04/30 11:03:10;;;;;;;7.18;6.47;;;;;;;20.90;47.18;92668.28;5039777;28;20470;-75
2022/04/30 11:05:40;;;;;;;6.35;5.95;;;;;;;20.72;48.32;92662.06;5037399;28;20467;-72
2022/04/30 11:08:08;;;;;;;6.90;6.50;;;;;;;20.72;46.46;92675.72;5040419;28;20666;-72
2022/04/30 11:10:35;;;;;;;7.80;7.07;;;;;;;20.66;46.38;92676.22;5035826;28;20593;-71
2022/04/30 11:13:07;;;;;;;8.02;7.43;;;;;;;20.92;46.14;92649.22;5044556;28;20565;-72
2022/04/30 11:15:34;;;;;;;9.15;8.23;;;;;;;21.85;45.24;92662.03;5037186;28;20224;-72
2022/04/30 11:18:02;;;;;;;7.75;7.25;;;;;;;23.32;42.49;92681.69;5049366;28;20563;-73
2022/04/30 11:20:30;;;;;;;11.60;10.60;;;;;;;24.26;39.93;92691.03;5043294;28;20644;-74
2022/04/30 11:23:00;;;;;;;8.32;7.53;;;;;;;24.30;40.89;92672.50;5033056;28;20594;-72
2022/04/30 11:25:35;;;;;;;6.30;5.80;;;;;;;24.17;38.55;92690.06;5053091;28;20580;-72
2022/04/30 11:28:06;;;;;;;5.57;5.22;;;;;;;23.73;40.47;92675.34;5052979;28;20559;-72
2022/04/30 11:30:37;;;;;;;8.57;7.88;;;;;;;23.02;41.07;92675.75;5052829;28;20600;-72
2022/04/30 11:33:04;;;;;;;6.95;6.38;;;;;;;22.75;40.70;92679.97;5053665;28;20577;-72
2022/04/30 11:35:34;;;;;;;5.55;5.13;;;;;;;22.84;39.54;92679.16;5047521;28;20297;-72
2022/04/30 11:38:01;;;;;;;4.25;4.05;;;;;;;22.69;40.15;92678.72;5055610;28;20553;-72
2022/04/30 11:40:28;;;;;;;3.75;3.55;;;;;;;22.56;40.97;92665.28;5055902;28;20712;-73
2022/04/30 11:42:56;;;;;;;3.85;3.65;;;;;;;22.19;38.61;92681.38;5055045;28;20273;-73
2022/04/30 11:45:29;;;;;;;4.13;3.92;;;;;;;22.02;37.37;92687.16;5049848;28;20598;-72
2022/04/30 11:47:56;;;;;;;5.30;4.80;;;;;;;21.57;40.02;92678.97;5055556;28;20193;-73
2022/04/30 11:50:24;;;;;;;4.90;4.65;;;;;;;21.31;41.43;92650.28;5055295;28;20276;-73
2022/04/30 11:52:53;;;;;;;6.80;6.20;;;;;;;21.60;42.81;92647.84;5054828;28;20580;-72
2022/04/30 11:55:21;;;;;;;4.25;3.58;;;;;;;21.58;40.80;92664.34;5054554;28;20642;-72
2022/04/30 11:57:49;;;;;;;3.47;3.28;;;;;;;21.44;40.88;92668.91;5054175;28;20465;-73
2022/04/30 12:00:18;;;;;;;2.85;2.70;;;;;;;21.44;40.66;92663.75;5054512;28;20646;-72
2022/04/30 12:02:48;;;;;;;3.40;3.20;;;;;;;21.65;41.61;92630.28;5054491;28;20309;-71
2022/04/30 12:05:18;;;;;;;3.83;3.58;;;;;;;21.66;40.49;92654.25;5037459;28;20197;-71
2022/04/30 12:07:48;;;;;;;3.70;3.50;;;;;;;22.02;38.14;92678.63;5034811;28;20232;-72
2022/04/30 12:10:19;;;;;;;3.25;3.08;;;;;;;22.21;38.23;92678.66;5034716;28;20516;-72
2022/04/30 12:12:46;;;;;;;4.90;4.50;;;;;;;21.96;40.08;92651.66;5034642;28;20474;-73